createdAt,value
2019-03-03T00:00:04.494Z,1020.09
2019-03-03T00:10:03.729Z,1020.18
2019-03-03T00:20:04.188Z,1020.16
2019-03-03T00:30:04.240Z,1020.18
2019-03-03T00:40:03.133Z,1019.91
2019-03-03T00:50:03.059Z,1020.09
2019-03-03T01:00:04.091Z,1020.01
2019-03-03T01:10:03.362Z,1019.86
2019-03-03T01:20:03.822Z,1019.97
2019-03-03T01:30:03.965Z,1019.99
2019-03-03T01:40:03.580Z,1019.85
2019-03-03T01:50:03.469Z,1019.95
2019-03-03T02:00:04.558Z,1020.04
2019-03-03T02:10:02.988Z,1020.03
2019-03-03T02:20:03.265Z,1020.01
2019-03-03T02:30:04.246Z,1019.97
2019-03-03T02:40:03.220Z,1019.88
2019-03-03T02:50:03.199Z,1019.80
2019-03-03T03:00:04.438Z,1019.73
2019-03-03T03:10:03.837Z,1019.68
2019-03-03T03:20:03.801Z,1019.59
2019-03-03T03:30:04.041Z,1019.62
2019-03-03T03:40:04.318Z,1019.60
2019-03-03T03:50:03.699Z,1019.59
2019-03-03T04:00:03.970Z,1019.61
2019-03-03T04:10:03.546Z,1019.71
2019-03-03T04:20:03.363Z,1019.73
2019-03-03T04:30:04.542Z,1019.79
2019-03-03T04:40:03.547Z,1019.75
2019-03-03T04:50:02.908Z,1019.72
2019-03-03T05:00:04.823Z,1019.70
2019-03-03T05:10:03.217Z,1019.61
2019-03-03T05:20:03.565Z,1019.51
2019-03-03T05:30:04.304Z,1019.43
2019-03-03T05:40:02.933Z,1019.26
2019-03-03T05:50:03.174Z,1019.33
2019-03-03T06:00:04.247Z,1019.31
2019-03-03T06:10:02.970Z,1019.32
2019-03-03T06:20:03.080Z,1019.31
2019-03-03T06:30:06.640Z,1019.27
2019-03-03T06:40:03.831Z,1019.24
2019-03-03T06:50:02.724Z,1019.24
2019-03-03T07:00:04.281Z,1019.18
2019-03-03T07:10:02.971Z,1019.15
2019-03-03T07:20:03.234Z,1019.12
2019-03-03T07:30:04.390Z,1019.08
2019-03-03T07:40:03.349Z,1019.15
2019-03-03T07:50:03.367Z,1019.10
2019-03-03T08:00:04.290Z,1019.14
2019-03-03T08:10:03.164Z,1019.24
2019-03-03T08:20:03.655Z,1019.20
2019-03-03T08:30:03.530Z,1019.19
2019-03-03T08:40:03.583Z,1019.18
2019-03-03T08:50:03.510Z,1018.93
2019-03-03T09:00:04.212Z,1018.87
2019-03-03T09:10:02.945Z,1018.72
2019-03-03T09:20:03.111Z,1018.64
2019-03-03T09:30:04.369Z,1018.46
2019-03-03T09:40:10.320Z,1018.42
2019-03-03T09:50:03.183Z,1018.13
2019-03-03T10:00:03.861Z,1018.31
2019-03-03T10:10:03.491Z,1018.24
2019-03-03T10:20:03.876Z,1018.25
2019-03-03T10:30:04.169Z,1018.11
2019-03-03T10:40:03.266Z,1017.88
2019-03-03T10:50:03.265Z,1018.00
2019-03-03T11:00:04.605Z,1017.89
2019-03-03T11:10:03.554Z,1017.78
2019-03-03T11:20:03.849Z,1017.60
2019-03-03T11:30:03.905Z,1017.65
2019-03-03T11:40:03.804Z,1017.61
2019-03-03T11:50:02.857Z,1017.30
2019-03-03T12:00:03.721Z,1017.25
2019-03-03T12:10:03.579Z,1017.09
2019-03-03T12:20:03.798Z,1016.91
2019-03-03T12:30:04.414Z,1016.74
2019-03-03T12:40:03.294Z,1016.67
2019-03-03T12:50:03.396Z,1016.55
2019-03-03T13:00:04.266Z,1016.12
2019-03-03T13:10:03.039Z,1016.43
2019-03-03T13:20:03.122Z,1016.37
2019-03-03T13:30:04.453Z,1016.16
2019-03-03T13:40:03.351Z,1016.06
2019-03-03T13:50:03.373Z,1015.93
2019-03-03T14:00:04.357Z,1015.73
2019-03-03T14:10:03.702Z,1015.50
2019-03-03T14:20:03.729Z,1015.42
2019-03-03T14:30:03.940Z,1015.26
2019-03-03T14:40:03.263Z,1015.11
2019-03-03T14:50:03.135Z,1015.16
2019-03-03T15:00:04.270Z,1014.89
2019-03-03T15:10:03.178Z,1014.76
2019-03-03T15:20:03.427Z,1014.54
2019-03-03T15:30:04.632Z,1014.51
2019-03-03T15:40:03.256Z,1014.42
2019-03-03T15:50:03.075Z,1014.21
2019-03-03T16:00:05.546Z,1014.13
2019-03-03T16:10:03.266Z,1014.07
2019-03-03T16:20:03.731Z,1014.03
2019-03-03T16:30:03.938Z,1014.01
2019-03-03T16:40:03.862Z,1014.11
2019-03-03T16:50:03.124Z,1014.03
2019-03-03T17:00:03.993Z,1013.91
2019-03-03T17:10:03.099Z,1013.90
2019-03-03T17:20:03.787Z,1013.86
2019-03-03T17:30:04.039Z,1013.73
2019-03-03T17:40:03.729Z,1013.71
2019-03-03T17:50:02.850Z,1013.60
2019-03-03T18:00:03.573Z,1013.54
2019-03-03T18:10:03.448Z,1013.43
2019-03-03T18:20:03.673Z,1013.44
2019-03-03T18:30:03.755Z,1013.34
2019-03-03T18:40:03.749Z,1013.33
2019-03-03T18:50:03.883Z,1013.19
2019-03-03T19:00:03.623Z,1013.13
2019-03-03T19:10:02.944Z,1013.00
2019-03-03T19:20:03.668Z,1012.89
2019-03-03T19:30:03.952Z,1012.89
2019-03-03T19:40:03.022Z,1012.91
2019-03-03T19:50:03.582Z,1012.78
2019-03-03T20:00:04.134Z,1012.75
2019-03-03T20:10:02.984Z,1012.69
2019-03-03T20:20:03.376Z,1012.68
2019-03-03T20:30:04.478Z,1012.67
2019-03-03T20:40:03.542Z,1012.62
2019-03-03T20:50:03.602Z,1012.59
2019-03-03T21:00:04.449Z,1012.56
2019-03-03T21:10:03.156Z,1012.48
2019-03-03T21:20:03.578Z,1012.25
2019-03-03T21:30:03.757Z,1012.14
2019-03-03T21:40:03.468Z,1012.12
2019-03-03T21:50:03.700Z,1012.07
2019-03-03T22:00:03.678Z,1012.10
2019-03-03T22:10:03.732Z,1012.01
2019-03-03T22:20:03.221Z,1011.99
2019-03-03T22:30:04.530Z,1011.84
2019-03-03T22:40:03.410Z,1011.80
2019-03-03T22:50:02.882Z,1011.59
2019-03-03T23:00:04.732Z,1011.34
2019-03-03T23:10:03.592Z,1011.19
2019-03-03T23:20:03.631Z,1011.09
2019-03-03T23:30:03.558Z,1011.02
2019-03-03T23:40:03.856Z,1010.91
2019-03-03T23:50:03.703Z,1010.69
